Time;durP1;ratioP1;P1;durP2;ratioP2;P2;SDS_P1;SDS_P2;PMS_P1;PMS_P2;Temp;Humidity;BMP_temperature;BMP_pressure;BME280_temperature;BME280_humidity;BME280_pressure;Samples;Min_cycle;Max_cycle;Signal;HPM_P1;HPM_P2
2023/05/07 00:00:22;;;;;;;18.75;11.48;;;;;;;;;;5077038;28;20031;-91
2023/05/07 00:02:48;;;;;;;15.98;8.70;;;;;;;;;;5076712;28;20056;-92
2023/05/07 00:05:15;;;;;;;12.90;7.50;;;;;;;;;;5076762;28;20472;-89
2023/05/07 00:07:41;;;;;;;17.83;10.18;;;;;;;;;;5076716;28;20046;-92
2023/05/07 00:10:07;;;;;;;18.05;11.77;;;;;;;;;;5076628;28;20060;-92
2023/05/07 00:12:33;;;;;;;15.73;9.90;;;;;;;;;;5076714;28;20472;-91
2023/05/07 00:15:00;;;;;;;16.02;10.05;;;;;;;;;;5076310;28;20028;-91
2023/05/07 00:17:26;;;;;;;21.10;13.35;;;;;;;;;;5076309;28;20499;-90
2023/05/07 00:19:52;;;;;;;16.83;12.13;;;;;;;;;;5094747;28;20401;-93
2023/05/07 00:22:19;;;;;;;12.18;8.10;;;;;;;;;;5076327;28;20035;-92
2023/05/07 00:24:45;;;;;;;16.40;10.65;;;;;;;;;;5076292;28;20021;-91
2023/05/07 00:27:11;;;;;;;20.42;11.10;;;;;;;;;;5076220;28;20404;-91
2023/05/07 00:29:37;;;;;;;18.90;10.85;;;;;;;;;;5076655;28;20027;-92
2023/05/07 00:32:03;;;;;;;17.02;9.85;;;;;;;;;;5076352;28;20055;-89
2023/05/07 00:34:29;;;;;;;17.65;11.45;;;;;;;;;;5076822;28;20107;-91
2023/05/07 00:36:55;;;;;;;18.77;10.95;;;;;;;;;;5076447;28;20036;-92
2023/05/07 00:39:22;;;;;;;18.13;10.98;;;;;;;;;;5076263;28;20028;-90
2023/05/07 00:41:48;;;;;;;18.75;10.68;;;;;;;;;;5075897;28;20131;-92
2023/05/07 00:44:14;;;;;;;16.60;10.95;;;;;;;;;;5076058;28;20028;-91
2023/05/07 00:46:41;;;;;;;17.88;10.75;;;;;;;;;;5076497;28;20028;-91
2023/05/07 00:49:07;;;;;;;15.10;9.73;;;;;;;;;;5076072;28;20032;-92
2023/05/07 00:51:33;;;;;;;13.30;9.18;;;;;;;;;;5076160;28;20051;-89
2023/05/07 00:54:00;;;;;;;14.82;9.98;;;;;;;;;;5062379;28;20032;-91
2023/05/07 00:56:27;;;;;;;13.63;6.57;;;;;;;;;;5055956;28;20060;-92
2023/05/07 00:58:53;;;;;;;18.50;11.93;;;;;;;;;;5056357;28;20028;-91
2023/05/07 01:01:19;;;;;;;13.13;9.05;;;;;;;;;;5056233;28;20081;-92
2023/05/07 01:03:46;;;;;;;17.38;10.98;;;;;;;;;;5055871;28;20103;-90
2023/05/07 01:06:12;;;;;;;21.80;11.90;;;;;;;;;;5056032;28;20025;-91
2023/05/07 01:08:39;;;;;;;16.38;10.85;;;;;;;;;;5073241;28;20107;-92
2023/05/07 01:11:06;;;;;;;17.98;11.38;;;;;;;;;;5075909;28;20523;-92
2023/05/07 01:13:32;;;;;;;22.42;14.20;;;;;;;;;;5059976;28;20082;-92
2023/05/07 01:15:59;;;;;;;14.05;10.60;;;;;;;;;;5055928;28;20032;-91
2023/05/07 01:18:26;;;;;;;18.88;11.68;;;;;;;;;;5056193;28;20025;-91
2023/05/07 01:20:52;;;;;;;17.55;10.85;;;;;;;;;;5056175;28;20131;-92
2023/05/07 01:23:19;;;;;;;17.77;12.23;;;;;;;;;;5056602;28;20028;-92
2023/05/07 01:25:51;;;;;;;16.00;10.48;;;;;;;;;;5063276;28;20089;-92
2023/05/07 01:28:18;;;;;;;20.13;10.90;;;;;;;;;;5075777;28;20024;-92
2023/05/07 01:30:46;;;;;;;16.42;10.27;;;;;;;;;;5075987;28;20024;-91
2023/05/07 01:33:14;;;;;;;21.70;12.18;;;;;;;;;;5076012;28;20047;-90
2023/05/07 01:35:42;;;;;;;17.27;11.77;;;;;;;;;;5075629;28;20396;-91
2023/05/07 01:38:09;;;;;;;14.65;10.20;;;;;;;;;;5075422;28;20185;-91
2023/05/07 01:40:35;;;;;;;18.20;12.07;;;;;;;;;;5075835;28;20051;-92
2023/05/07 01:43:02;;;;;;;19.27;11.57;;;;;;;;;;5075615;28;20032;-92
2023/05/07 01:45:28;;;;;;;14.63;10.18;;;;;;;;;;5075646;28;20032;-92
2023/05/07 01:47:55;;;;;;;20.60;11.05;;;;;;;;;;5075926;28;20027;-92
2023/05/07 01:50:22;;;;;;;15.77;9.85;;;;;;;;;;5058061;28;20047;-90
2023/05/07 01:52:48;;;;;;;12.88;9.23;;;;;;;;;;5055858;28;20021;-92
2023/05/07 01:55:14;;;;;;;10.57;8.27;;;;;;;;;;5055434;28;20485;-91
2023/05/07 01:57:40;;;;;;;16.30;10.25;;;;;;;;;;5057880;28;20115;-92
2023/05/07 02:00:08;;;;;;;18.73;10.85;;;;;;;;;;5075689;28;20104;-92
2023/05/07 02:02:34;;;;;;;16.17;10.48;;;;;;;;;;5075850;28;20082;-90
2023/05/07 02:05:01;;;;;;;16.85;11.18;;;;;;;;;;5075628;28;20487;-94
2023/05/07 02:07:28;;;;;;;16.65;11.32;;;;;;;;;;5075817;28;20025;-90
2023/05/07 02:09:55;;;;;;;15.63;11.05;;;;;;;;;;5075958;28;20025;-92
2023/05/07 02:12:21;;;;;;;16.92;11.90;;;;;;;;;;5075358;28;20056;-92
2023/05/07 02:14:48;;;;;;;9.88;7.18;;;;;;;;;;5074685;28;20225;-90
2023/05/07 02:17:14;;;;;;;12.07;8.13;;;;;;;;;;5055466;28;20036;-92
2023/05/07 02:19:40;;;;;;;18.17;12.05;;;;;;;;;;5055183;28;20021;-91
2023/05/07 02:22:06;;;;;;;20.05;11.90;;;;;;;;;;5057866;28;20102;-92
2023/05/07 02:24:32;;;;;;;15.45;9.38;;;;;;;;;;5075520;28;20039;-92
2023/05/07 02:26:59;;;;;;;13.55;9.45;;;;;;;;;;5075391;28;20024;-90
2023/05/07 02:29:25;;;;;;;21.25;12.40;;;;;;;;;;5075603;28;20023;-92
2023/05/07 02:31:52;;;;;;;18.90;11.65;;;;;;;;;;5075515;28;20097;-92
2023/05/07 02:34:18;;;;;;;17.50;10.98;;;;;;;;;;5075172;28;20503;-93
2023/05/07 02:36:45;;;;;;;16.25;10.05;;;;;;;;;;5060859;28;20041;-92
2023/05/07 02:39:13;;;;;;;17.38;11.43;;;;;;;;;;5063802;28;20072;-89
2023/05/07 02:41:39;;;;;;;18.58;12.02;;;;;;;;;;5075158;28;20056;-92
2023/05/07 02:44:05;;;;;;;14.95;10.48;;;;;;;;;;5074819;28;20021;-92
2023/05/07 02:46:31;;;;;;;15.38;9.75;;;;;;;;;;5074739;28;20025;-92
2023/05/07 02:48:57;;;;;;;21.05;13.43;;;;;;;;;;5074684;28;20028;-91
2023/05/07 02:51:25;;;;;;;19.23;12.00;;;;;;;;;;5066006;28;20025;-90
2023/05/07 02:53:51;;;;;;;11.30;8.93;;;;;;;;;;5054689;28;20032;-92
2023/05/07 02:56:18;;;;;;;21.42;13.63;;;;;;;;;;5054645;28;20053;-91
2023/05/07 02:58:44;;;;;;;20.95;12.27;;;;;;;;;;5074004;28;20048;-92
2023/05/07 03:01:10;;;;;;;26.23;14.45;;;;;;;;;;5074353;28;20037;-92
2023/05/07 03:03:36;;;;;;;27.30;14.88;;;;;;;;;;5074904;28;20017;-90
2023/05/07 03:06:02;;;;;;;21.13;14.60;;;;;;;;;;5074772;28;20117;-92
2023/05/07 03:08:28;;;;;;;24.92;14.98;;;;;;;;;;5074460;28;20481;-92
2023/05/07 03:10:54;;;;;;;19.98;13.82;;;;;;;;;;5074701;28;20036;-92
2023/05/07 03:13:21;;;;;;;22.95;13.38;;;;;;;;;;5068648;28;20066;-92
2023/05/07 03:15:47;;;;;;;21.10;13.02;;;;;;;;;;5054345;28;20036;-90
2023/05/07 03:18:13;;;;;;;21.45;13.75;;;;;;;;;;5058055;28;20028;-93
2023/05/07 03:20:39;;;;;;;20.08;13.70;;;;;;;;;;5074542;28;20032;-92
2023/05/07 03:23:05;;;;;;;20.17;13.45;;;;;;;;;;5072210;28;20074;-93
2023/05/07 03:25:32;;;;;;;20.35;11.52;;;;;;;;;;5054124;28;20036;-92
2023/05/07 03:27:58;;;;;;;16.20;9.02;;;;;;;;;;5054575;28;20032;-92
2023/05/07 03:30:25;;;;;;;12.10;8.73;;;;;;;;;;5074865;28;20030;-92
2023/05/07 03:32:51;;;;;;;15.70;10.65;;;;;;;;;;5074004;28;20206;-92
2023/05/07 03:35:17;;;;;;;16.88;11.93;;;;;;;;;;5055246;28;20061;-93
2023/05/07 03:37:43;;;;;;;27.08;15.38;;;;;;;;;;5053984;28;20033;-92
2023/05/07 03:40:10;;;;;;;14.77;10.48;;;;;;;;;;5053916;28;20025;-95
2023/05/07 03:42:36;;;;;;;20.95;13.93;;;;;;;;;;5054488;28;20059;-90
2023/05/07 03:45:02;;;;;;;24.65;13.05;;;;;;;;;;5053723;28;20032;-91
2023/05/07 03:47:28;;;;;;;19.40;12.40;;;;;;;;;;5053755;28;20036;-92
2023/05/07 03:49:54;;;;;;;14.82;9.75;;;;;;;;;;5054248;28;20143;-93
2023/05/07 03:52:25;;;;;;;20.15;12.70;;;;;;;;;;5053584;28;20029;-92
2023/05/07 03:54:51;;;;;;;17.27;12.00;;;;;;;;;;5055226;28;20032;-93
2023/05/07 03:57:17;;;;;;;16.00;10.40;;;;;;;;;;5056737;28;20122;-92
2023/05/07 03:59:45;;;;;;;18.23;11.38;;;;;;;;;;5056624;28;20115;-92
2023/05/07 04:02:11;;;;;;;10.30;8.75;;;;;;;;;;5056604;28;20028;-92
2023/05/07 04:04:37;;;;;;;16.83;10.45;;;;;;;;;;5057105;28;20028;-92
2023/05/07 04:07:04;;;;;;;8.18;6.35;;;;;;;;;;5069483;28;20141;-90
2023/05/07 04:09:30;;;;;;;16.05;11.77;;;;;;;;;;5076589;28;20429;-93
2023/05/07 04:11:57;;;;;;;17.40;11.57;;;;;;;;;;5057207;28;20477;-90
2023/05/07 04:14:23;;;;;;;19.30;13.15;;;;;;;;;;5056944;28;20119;-93
2023/05/07 04:16:49;;;;;;;18.88;13.75;;;;;;;;;;5056156;28;20036;-92
2023/05/07 04:19:15;;;;;;;20.33;12.70;;;;;;;;;;5068934;28;20032;-90
2023/05/07 04:21:41;;;;;;;18.00;12.90;;;;;;;;;;5076828;28;20052;-94
2023/05/07 04:24:11;;;;;;;16.05;11.30;;;;;;;;;;5076294;28;20123;-91
2023/05/07 04:26:37;;;;;;;22.42;13.88;;;;;;;;;;5061710;28;20059;-91
2023/05/07 04:29:03;;;;;;;11.02;9.73;;;;;;;;;;5056755;28;20025;-92
2023/05/07 04:31:30;;;;;;;11.20;8.70;;;;;;;;;;5056189;28;20078;-90
2023/05/07 04:33:56;;;;;;;22.30;13.35;;;;;;;;;;5064087;28;20468;-91
2023/05/07 04:36:22;;;;;;;19.63;13.68;;;;;;;;;;5076478;28;20067;-90
2023/05/07 04:38:48;;;;;;;16.42;13.30;;;;;;;;;;5076362;28;20372;-92
2023/05/07 04:41:15;;;;;;;19.30;14.68;;;;;;;;;;5076009;28;20020;-91
2023/05/07 04:43:41;;;;;;;16.58;13.38;;;;;;;;;;5076427;28;20119;-91
2023/05/07 04:46:07;;;;;;;17.75;13.32;;;;;;;;;;5076368;28;20020;-92
2023/05/07 04:48:37;;;;;;;14.63;11.93;;;;;;;;;;5076555;28;20031;-92
2023/05/07 04:51:03;;;;;;;18.50;13.25;;;;;;;;;;5069540;28;20029;-92
2023/05/07 04:53:29;;;;;;;19.88;14.50;;;;;;;;;;5055955;28;20028;-92
2023/05/07 04:55:56;;;;;;;17.45;13.38;;;;;;;;;;5055621;28;20056;-89
2023/05/07 04:58:23;;;;;;;16.08;13.75;;;;;;;;;;5056190;28;20109;-94
2023/05/07 05:00:50;;;;;;;19.10;13.55;;;;;;;;;;5055862;28;20070;-90
2023/05/07 05:03:16;;;;;;;13.75;12.02;;;;;;;;;;5056013;28;20039;-92
2023/05/07 05:05:42;;;;;;;18.40;14.60;;;;;;;;;;5055975;28;20031;-91
2023/05/07 05:08:08;;;;;;;15.48;12.80;;;;;;;;;;5056433;28;20056;-91
2023/05/07 05:10:34;;;;;;;18.25;12.40;;;;;;;;;;5055843;28;20017;-92
2023/05/07 05:13:00;;;;;;;13.23;11.50;;;;;;;;;;5055834;28;20119;-92
2023/05/07 05:15:26;;;;;;;12.20;10.93;;;;;;;;;;5055876;28;20059;-95
2023/05/07 05:17:52;;;;;;;10.82;9.48;;;;;;;;;;5055701;28;20035;-91
2023/05/07 05:20:19;;;;;;;14.57;11.65;;;;;;;;;;5056170;28;20020;-90
2023/05/07 05:22:45;;;;;;;12.43;10.68;;;;;;;;;;5071982;28;20036;-93
2023/05/07 05:25:11;;;;;;;12.48;11.18;;;;;;;;;;5075783;28;20489;-92
2023/05/07 05:27:37;;;;;;;11.32;9.10;;;;;;;;;;5076104;28;20020;-90
2023/05/07 05:30:05;;;;;;;9.07;8.23;;;;;;;;;;5097754;28;20451;-92
2023/05/07 05:32:31;;;;;;;7.97;7.18;;;;;;;;;;5079780;28;20066;-91
2023/05/07 05:34:57;;;;;;;8.82;6.75;;;;;;;;;;5079819;28;20043;-92
2023/05/07 05:37:24;;;;;;;6.53;5.55;;;;;;;;;;5079407;28;20035;-92
2023/05/07 05:39:50;;;;;;;9.20;5.60;;;;;;;;;;5079402;28;20056;-91
2023/05/07 05:42:16;;;;;;;7.50;5.13;;;;;;;;;;5079320;28;20030;-92
2023/05/07 05:44:43;;;;;;;6.82;5.20;;;;;;;;;;5079388;28;20036;-90
2023/05/07 05:47:09;;;;;;;5.45;4.82;;;;;;;;;;5079264;28;20128;-92
2023/05/07 05:49:38;;;;;;;5.65;5.05;;;;;;;;;;5079334;28;20028;-93
2023/05/07 05:52:07;;;;;;;6.05;4.70;;;;;;;;;;5079161;28;20093;-91
2023/05/07 05:54:33;;;;;;;5.97;5.10;;;;;;;;;;5069060;28;20124;-93
2023/05/07 05:57:00;;;;;;;6.00;4.72;;;;;;;;;;5058720;28;20049;-90
2023/05/07 05:59:26;;;;;;;9.93;5.22;;;;;;;;;;5059292;28;20027;-93
2023/05/07 06:01:52;;;;;;;5.53;4.43;;;;;;;;;;5058874;28;20025;-91
2023/05/07 06:04:19;;;;;;;6.20;4.70;;;;;;;;;;5059027;28;20025;-93
2023/05/07 06:06:45;;;;;;;5.63;4.88;;;;;;;;;;5077712;28;20028;-92
2023/05/07 06:09:11;;;;;;;5.93;5.20;;;;;;;;;;5078968;28;20336;-91
2023/05/07 06:11:37;;;;;;;6.03;5.22;;;;;;;;;;5079593;28;20062;-92
2023/05/07 06:14:03;;;;;;;6.30;5.70;;;;;;;;;;5079108;28;20035;-91
2023/05/07 06:16:29;;;;;;;7.43;6.05;;;;;;;;;;5071723;28;20033;-91
2023/05/07 06:18:56;;;;;;;6.65;5.93;;;;;;;;;;5077207;28;20039;-92
2023/05/07 06:21:22;;;;;;;7.57;6.47;;;;;;;;;;5078900;28;20039;-91
2023/05/07 06:23:48;;;;;;;8.82;6.35;;;;;;;;;;5078778;28;20480;-92
2023/05/07 06:26:14;;;;;;;9.63;7.65;;;;;;;;;;5078512;28;20026;-92
2023/05/07 06:28:40;;;;;;;9.13;8.23;;;;;;;;;;5078786;28;20047;-90
2023/05/07 06:31:13;;;;;;;9.63;8.73;;;;;;;;;;5078379;28;20020;-91
2023/05/07 06:33:40;;;;;;;9.55;8.65;;;;;;;;;;5078568;28;20028;-91
2023/05/07 06:36:06;;;;;;;9.77;8.88;;;;;;;;;;5078155;28;20032;-91
2023/05/07 06:38:32;;;;;;;11.15;9.95;;;;;;;;;;5065595;28;20028;-91
2023/05/07 06:40:59;;;;;;;10.55;9.55;;;;;;;;;;5058360;28;20078;-92
2023/05/07 06:43:25;;;;;;;11.27;9.77;;;;;;;;;;5058333;28;20060;-92
2023/05/07 06:45:51;;;;;;;11.73;10.57;;;;;;;;;;5058110;28;20035;-89
2023/05/07 06:48:17;;;;;;;9.77;8.68;;;;;;;;;;5058401;28;20025;-91
2023/05/07 06:50:43;;;;;;;10.13;9.13;;;;;;;;;;5059254;28;20502;-90
2023/05/07 06:53:09;;;;;;;12.02;9.65;;;;;;;;;;5058021;28;20067;-93
2023/05/07 06:55:37;;;;;;;13.48;10.13;;;;;;;;;;5054401;28;20549;-92
2023/05/07 06:58:04;;;;;;;11.10;10.00;;;;;;;;;;5054662;28;20116;-91
2023/05/07 07:00:30;;;;;;;11.13;10.02;;;;;;;;;;5064148;28;20029;-91
2023/05/07 07:02:56;;;;;;;9.88;8.88;;;;;;;;;;5075082;28;20031;-91
2023/05/07 07:05:22;;;;;;;10.52;8.98;;;;;;;;;;5074333;28;20101;-93
2023/05/07 07:07:52;;;;;;;8.85;7.95;;;;;;;;;;5074422;28;20386;-92
2023/05/07 07:10:19;;;;;;;10.07;8.70;;;;;;;;;;5068211;28;20070;-92
2023/05/07 07:12:46;;;;;;;8.32;7.03;;;;;;;;;;5055473;28;20048;-93
2023/05/07 07:15:12;;;;;;;7.93;7.13;;;;;;;;;;5054481;28;20106;-90
2023/05/07 07:17:38;;;;;;;9.40;8.05;;;;;;;;;;5054581;28;20065;-92
2023/05/07 07:20:05;;;;;;;11.00;9.75;;;;;;;;;;5056833;28;20029;-92
2023/05/07 07:22:31;;;;;;;8.38;7.03;;;;;;;;;;5074437;28;20119;-91
2023/05/07 07:24:57;;;;;;;9.57;8.52;;;;;;;;;;5056308;28;20453;-92
2023/05/07 07:27:23;;;;;;;9.88;8.85;;;;;;;;;;5054101;28;20024;-91
2023/05/07 07:29:49;;;;;;;10.25;8.18;;;;;;;;;;5054448;28;20031;-93
2023/05/07 07:32:15;;;;;;;8.98;8.15;;;;;;;;;;5054053;28;20053;-93
2023/05/07 07:34:42;;;;;;;9.65;8.70;;;;;;;;;;5059904;28;20503;-90
2023/05/07 07:37:08;;;;;;;9.48;8.50;;;;;;;;;;5073935;28;20100;-93
2023/05/07 07:39:34;;;;;;;10.43;8.60;;;;;;;;;;5073988;28;20025;-92
2023/05/07 07:42:01;;;;;;;10.70;9.15;;;;;;;;;;5065922;28;20033;-90
2023/05/07 07:44:28;;;;;;;10.48;8.73;;;;;;;;;;5053790;28;20060;-92
2023/05/07 07:46:54;;;;;;;11.07;8.70;;;;;;;;;;5053628;28;20096;-90
2023/05/07 07:49:20;;;;;;;9.65;8.30;;;;;;;;;;5053979;28;20040;-92
2023/05/07 07:51:46;;;;;;;9.63;8.63;;;;;;;;;;5065692;28;20043;-91
2023/05/07 07:54:12;;;;;;;8.07;7.28;;;;;;;;;;5073724;28;20487;-92
2023/05/07 07:56:39;;;;;;;11.18;9.40;;;;;;;;;;5073672;28;20139;-92
2023/05/07 07:59:05;;;;;;;10.07;9.07;;;;;;;;;;5073363;28;20017;-91
2023/05/07 08:01:31;;;;;;;9.73;7.93;;;;;;;;;;5074622;28;20132;-91
2023/05/07 08:04:00;;;;;;;11.73;8.85;;;;;;;;;;5069298;28;20029;-94
2023/05/07 08:06:26;;;;;;;10.32;8.15;;;;;;;;;;5053318;28;20025;-90
2023/05/07 08:08:52;;;;;;;10.25;9.25;;;;;;;;;;5053497;28;20029;-93
2023/05/07 08:11:19;;;;;;;9.55;8.40;;;;;;;;;;5053269;28;20021;-91
2023/05/07 08:13:46;;;;;;;7.90;7.10;;;;;;;;;;5053507;28;20481;-90
2023/05/07 08:16:12;;;;;;;9.40;8.13;;;;;;;;;;5053062;28;20033;-93
2023/05/07 08:18:39;;;;;;;8.55;7.53;;;;;;;;;;5053079;28;20056;-90
2023/05/07 08:21:05;;;;;;;9.40;8.50;;;;;;;;;;5064534;28;20051;-92
2023/05/07 08:23:31;;;;;;;10.55;9.50;;;;;;;;;;5073671;28;20047;-93
2023/05/07 08:25:57;;;;;;;11.60;10.50;;;;;;;;;;5073254;28;20079;-91
2023/05/07 08:28:24;;;;;;;12.05;10.80;;;;;;;;;;5068524;28;20493;-92
2023/05/07 08:30:51;;;;;;;10.95;9.85;;;;;;;;;;5052883;28;20162;-90
2023/05/07 08:33:17;;;;;;;11.65;10.55;;;;;;;;;;5053044;28;20070;-92
2023/05/07 08:35:43;;;;;;;11.05;9.93;;;;;;;;;;5053073;28;20036;-91
2023/05/07 08:38:09;;;;;;;10.15;9.00;;;;;;;;;;5053275;28;20036;-92
2023/05/07 08:40:40;;;;;;;8.57;7.68;;;;;;;;;;5052646;28;20392;-92
2023/05/07 08:43:07;;;;;;;9.52;7.90;;;;;;;;;;5052780;28;20021;-91
2023/05/07 08:45:34;;;;;;;7.82;7.05;;;;;;;;;;5072799;28;20032;-92
2023/05/07 08:48:00;;;;;;;8.50;7.20;;;;;;;;;;5072779;28;20477;-92
2023/05/07 08:50:26;;;;;;;7.70;6.80;;;;;;;;;;5073254;28;20021;-92
2023/05/07 08:52:53;;;;;;;7.95;7.15;;;;;;;;;;5072735;28;20031;-92
2023/05/07 08:55:19;;;;;;;7.90;7.13;;;;;;;;;;5072270;28;20136;-91
2023/05/07 08:57:46;;;;;;;7.80;7.03;;;;;;;;;;5072647;28;20029;-93
2023/05/07 09:00:13;;;;;;;8.70;6.72;;;;;;;;;;5072810;28;20048;-93
2023/05/07 09:02:39;;;;;;;7.38;6.57;;;;;;;;;;5064228;28;20033;-91
2023/05/07 09:05:05;;;;;;;7.65;6.85;;;;;;;;;;5056879;28;20025;-92
2023/05/07 09:07:32;;;;;;;9.55;6.60;;;;;;;;;;5056736;28;20107;-89
2023/05/07 09:09:59;;;;;;;6.68;5.22;;;;;;;;;;5056566;28;20113;-92
2023/05/07 09:12:25;;;;;;;6.20;5.60;;;;;;;;;;5056502;28;20040;-90
2023/05/07 09:14:51;;;;;;;6.70;6.00;;;;;;;;;;5056440;28;20032;-92
2023/05/07 09:17:17;;;;;;;6.40;4.88;;;;;;;;;;5056367;28;20055;-92
2023/05/07 09:19:45;;;;;;;5.72;4.47;;;;;;;;;;5056416;28;20412;-94
2023/05/07 09:22:11;;;;;;;6.60;4.60;;;;;;;;;;5057009;28;20033;-93
2023/05/07 09:24:38;;;;;;;5.07;4.45;;;;;;;;;;5056414;28;20025;-91
2023/05/07 09:27:05;;;;;;;6.85;4.50;;;;;;;;;;5064892;28;20112;-91
2023/05/07 09:29:37;;;;;;;5.72;4.03;;;;;;;;;;5061636;28;20056;-92
2023/05/07 09:32:07;;;;;;;4.82;4.40;;;;;;;;;;5076364;28;20054;-91
2023/05/07 09:34:34;;;;;;;7.15;4.47;;;;;;;;;;5076132;28;20036;-90
2023/05/07 09:37:04;;;;;;;6.75;4.10;;;;;;;;;;5076226;28;20037;-92
2023/05/07 09:39:45;;;;;;;5.20;4.20;;;;;;;;;;5076363;28;20024;-91
2023/05/07 09:42:11;;;;;;;5.47;4.90;;;;;;;;;;5076121;28;20043;-92
2023/05/07 09:44:37;;;;;;;5.97;4.75;;;;;;;;;;5076096;28;20029;-92
2023/05/07 09:47:07;;;;;;;6.63;4.75;;;;;;;;;;5076671;28;20546;-90
2023/05/07 09:49:37;;;;;;;6.97;5.55;;;;;;;;;;5075806;28;20025;-91
2023/05/07 09:52:10;;;;;;;6.05;5.07;;;;;;;;;;5075712;28;20137;-90
2023/05/07 09:54:37;;;;;;;8.18;5.00;;;;;;;;;;5076195;28;20031;-91
2023/05/07 09:57:04;;;;;;;6.78;4.68;;;;;;;;;;5075860;28;20080;-90
2023/05/07 09:59:31;;;;;;;5.47;4.60;;;;;;;;;;5076061;28;20032;-91
2023/05/07 10:01:58;;;;;;;6.55;4.75;;;;;;;;;;5075631;28;20020;-91
2023/05/07 10:04:26;;;;;;;5.78;5.13;;;;;;;;;;5059016;28;20063;-92
2023/05/07 10:06:53;;;;;;;7.55;4.95;;;;;;;;;;5055539;28;20473;-90
2023/05/07 10:09:20;;;;;;;5.50;4.32;;;;;;;;;;5055527;28;20032;-91
2023/05/07 10:11:46;;;;;;;4.93;4.43;;;;;;;;;;5056583;28;20481;-92
2023/05/07 10:14:12;;;;;;;4.47;3.63;;;;;;;;;;5055316;28;20021;-89
2023/05/07 10:16:39;;;;;;;5.30;3.60;;;;;;;;;;5055282;28;20033;-92
2023/05/07 10:19:12;;;;;;;4.32;3.70;;;;;;;;;;5055453;28;20028;-92
2023/05/07 10:21:39;;;;;;;6.32;4.10;;;;;;;;;;5055328;28;20112;-93
2023/05/07 10:24:08;;;;;;;7.45;4.43;;;;;;;;;;5054972;28;20029;-92
2023/05/07 10:26:35;;;;;;;6.13;3.90;;;;;;;;;;5055207;28;20032;-92
2023/05/07 10:29:06;;;;;;;5.63;4.30;;;;;;;;;;5064874;28;20025;-91
2023/05/07 10:31:44;;;;;;;5.55;4.05;;;;;;;;;;5075608;28;20036;-91
2023/05/07 10:34:11;;;;;;;4.85;3.88;;;;;;;;;;5075942;28;20028;-93
2023/05/07 10:36:39;;;;;;;5.03;3.95;;;;;;;;;;5074922;28;20047;-89
2023/05/07 10:39:05;;;;;;;4.60;3.88;;;;;;;;;;5057580;28;20032;-91
2023/05/07 10:41:31;;;;;;;4.75;3.60;;;;;;;;;;5055001;28;20497;-92
2023/05/07 10:44:01;;;;;;;5.03;4.07;;;;;;;;;;5054856;28;20025;-92
2023/05/07 10:46:27;;;;;;;4.38;3.70;;;;;;;;;;5055007;28;20029;-92
2023/05/07 10:49:10;;;;;;;5.80;4.03;;;;;;;;;;5054955;28;20083;-92
2023/05/07 10:51:36;;;;;;;5.05;3.85;;;;;;;;;;5054899;28;20048;-89
2023/05/07 10:54:12;;;;;;;5.07;3.75;;;;;;;;;;5054509;28;20040;-91
2023/05/07 10:56:38;;;;;;;4.82;4.03;;;;;;;;;;5054350;28;20056;-91
2023/05/07 10:59:23;;;;;;;4.50;3.58;;;;;;;;;;5060943;28;20025;-91
2023/05/07 11:01:51;;;;;;;4.95;3.42;;;;;;;;;;5070901;28;20029;-92
2023/05/07 11:04:24;;;;;;;3.72;3.35;;;;;;;;;;5054626;28;20017;-91
2023/05/07 11:07:08;;;;;;;4.20;3.75;;;;;;;;;;5054741;28;20033;-92
2023/05/07 11:09:53;;;;;;;4.80;3.50;;;;;;;;;;5055513;28;20043;-91
2023/05/07 11:12:37;;;;;;;4.68;3.50;;;;;;;;;;5054428;28;20389;-91
2023/05/07 11:15:03;;;;;;;4.22;2.90;;;;;;;;;;5054272;28;20064;-90
2023/05/07 11:17:31;;;;;;;3.97;2.95;;;;;;;;;;5054412;28;20033;-91
2023/05/07 11:19:58;;;;;;;4.43;3.28;;;;;;;;;;5062698;28;20466;-89
2023/05/07 11:22:35;;;;;;;4.20;3.30;;;;;;;;;;5054166;28;20119;-91
2023/05/07 11:25:01;;;;;;;5.72;3.00;;;;;;;;;;5053788;28;20071;-91
2023/05/07 11:27:28;;;;;;;3.10;2.63;;;;;;;;;;5054274;28;20036;-91
2023/05/07 11:29:54;;;;;;;3.92;2.90;;;;;;;;;;5054348;28;20025;-89
2023/05/07 11:32:23;;;;;;;4.70;2.78;;;;;;;;;;5054750;28;20116;-91
2023/05/07 11:34:56;;;;;;;2.90;2.33;;;;;;;;;;5053739;28;20431;-90
2023/05/07 11:37:23;;;;;;;3.50;2.70;;;;;;;;;;5034046;28;20044;-91
2023/05/07 11:39:54;;;;;;;4.03;2.67;;;;;;;;;;5050643;28;20075;-89
2023/05/07 11:42:33;;;;;;;3.75;2.60;;;;;;;;;;5050634;28;20032;-91
2023/05/07 11:45:00;;;;;;;3.65;2.50;;;;;;;;;;5050487;28;20025;-91
2023/05/07 11:47:26;;;;;;;4.07;2.95;;;;;;;;;;5050442;28;20025;-90
2023/05/07 11:49:53;;;;;;;3.50;2.72;;;;;;;;;;5050057;28;20035;-92
2023/05/07 11:52:21;;;;;;;4.45;2.50;;;;;;;;;;5050338;28;20033;-90
2023/05/07 11:54:57;;;;;;;4.68;2.47;;;;;;;;;;5051119;28;20033;-91
2023/05/07 11:57:24;;;;;;;4.38;2.40;;;;;;;;;;5053334;28;20131;-91
2023/05/07 11:59:57;;;;;;;3.13;2.30;;;;;;;;;;5061900;28;20032;-90
2023/05/07 12:02:24;;;;;;;;;;;;;;;;;;5077229;28;20027;-90
2023/05/07 12:04:51;;;;;;;2.75;2.25;;;;;;;;;;5076767;28;19908;-91
2023/05/07 12:07:18;;;;;;;3.92;2.25;;;;;;;;;;5076739;28;20024;-92
2023/05/07 12:09:44;;;;;;;5.07;2.33;;;;;;;;;;5076679;28;20051;-91
2023/05/07 12:12:11;;;;;;;5.75;2.72;;;;;;;;;;5076686;28;20028;-93
2023/05/07 12:14:41;;;;;;;3.22;2.35;;;;;;;;;;5076574;28;20114;-90
2023/05/07 12:17:08;;;;;;;4.07;2.35;;;;;;;;;;5076535;28;20040;-90
2023/05/07 12:19:34;;;;;;;3.35;2.22;;;;;;;;;;5076573;28;20020;-94
2023/05/07 12:22:01;;;;;;;3.20;2.30;;;;;;;;;;5056794;28;20056;-92
2023/05/07 12:24:29;;;;;;;2.10;1.80;;;;;;;;;;5057016;28;20064;-92
2023/05/07 12:26:55;;;;;;;4.25;2.10;;;;;;;;;;5056319;28;20024;-94
2023/05/07 12:29:25;;;;;;;5.07;2.40;;;;;;;;;;5056361;28;20028;-92
2023/05/07 12:31:51;;;;;;;2.72;1.95;;;;;;;;;;5071021;28;20047;-91
2023/05/07 12:34:18;;;;;;;3.28;2.00;;;;;;;;;;5056443;28;20031;-92
2023/05/07 12:36:44;;;;;;;3.05;2.10;;;;;;;;;;5073723;28;20546;-92
2023/05/07 12:39:10;;;;;;;3.53;2.20;;;;;;;;;;5056072;28;20106;-91
2023/05/07 12:41:37;;;;;;;4.00;2.20;;;;;;;;;;5056395;28;20028;-93
2023/05/07 12:44:05;;;;;;;3.47;2.33;;;;;;;;;;5056296;28;20032;-91
2023/05/07 12:46:31;;;;;;;4.18;2.05;;;;;;;;;;5056256;28;20029;-91
2023/05/07 12:48:59;;;;;;;2.47;2.00;;;;;;;;;;5071652;28;20048;-91
2023/05/07 12:51:26;;;;;;;2.58;2.10;;;;;;;;;;5065767;28;20088;-89
2023/05/07 12:53:56;;;;;;;3.30;2.10;;;;;;;;;;5056192;28;20082;-91
2023/05/07 12:56:23;;;;;;;4.00;2.22;;;;;;;;;;5052193;28;20056;-90
2023/05/07 12:58:49;;;;;;;3.03;2.10;;;;;;;;;;5052723;28;20083;-94
2023/05/07 13:01:19;;;;;;;2.70;2.00;;;;;;;;;;5052565;28;20115;-94
2023/05/07 13:03:50;;;;;;;4.00;2.20;;;;;;;;;;5052589;28;20496;-90
2023/05/07 13:06:16;;;;;;;3.00;2.17;;;;;;;;;;5052747;28;20024;-93
2023/05/07 13:08:43;;;;;;;2.95;1.95;;;;;;;;;;5054564;28;20124;-91
2023/05/07 13:11:10;;;;;;;3.05;2.00;;;;;;;;;;5072752;28;20362;-94
2023/05/07 13:13:37;;;;;;;3.45;2.10;;;;;;;;;;5072996;28;20029;-89
2023/05/07 13:16:03;;;;;;;2.92;2.08;;;;;;;;;;5076281;28;20033;-92
2023/05/07 13:18:32;;;;;;;3.03;2.00;;;;;;;;;;5073069;28;20054;-93
2023/05/07 13:20:59;;;;;;;4.43;1.85;;;;;;;;;;5074321;28;20477;-93
2023/05/07 13:23:25;;;;;;;3.33;2.00;;;;;;;;;;5072435;28;20025;-90
2023/05/07 13:25:53;;;;;;;3.00;2.08;;;;;;;;;;5072581;28;20189;-90
2023/05/07 13:28:20;;;;;;;5.45;1.88;;;;;;;;;;5072916;28;20033;-93
2023/05/07 13:30:47;;;;;;;2.50;1.77;;;;;;;;;;5072365;28;20025;-93
2023/05/07 13:33:13;;;;;;;4.63;2.13;;;;;;;;;;5072878;28;20033;-94
2023/05/07 13:35:42;;;;;;;3.67;1.85;;;;;;;;;;5072461;28;20028;-90
2023/05/07 13:38:09;;;;;;;2.75;1.95;;;;;;;;;;5072853;28;20029;-91
2023/05/07 13:40:35;;;;;;;2.15;1.60;;;;;;;;;;5058849;28;20032;-94
2023/05/07 13:43:04;;;;;;;4.07;1.80;;;;;;;;;;5052364;28;20117;-90
2023/05/07 13:45:30;;;;;;;3.47;1.85;;;;;;;;;;5052175;28;20028;-92
2023/05/07 13:47:57;;;;;;;2.90;2.13;;;;;;;;;;5052227;28;20031;-92
2023/05/07 13:50:23;;;;;;;4.15;1.90;;;;;;;;;;5055138;28;20029;-93
2023/05/07 13:52:52;;;;;;;2.63;1.95;;;;;;;;;;5056167;28;20017;-92
2023/05/07 13:55:19;;;;;;;3.30;2.25;;;;;;;;;;5055688;28;20053;-91
2023/05/07 13:57:46;;;;;;;2.78;1.92;;;;;;;;;;5055898;28;20405;-90
2023/05/07 14:00:12;;;;;;;2.90;2.00;;;;;;;;;;5055862;28;20053;-91
2023/05/07 14:02:38;;;;;;;2.83;2.00;;;;;;;;;;5056043;28;20482;-92
2023/05/07 14:05:05;;;;;;;3.53;2.10;;;;;;;;;;5056572;28;20024;-89
2023/05/07 14:07:31;;;;;;;2.88;2.20;;;;;;;;;;5055648;28;20079;-92
2023/05/07 14:09:57;;;;;;;3.47;2.10;;;;;;;;;;5055525;28;20504;-91
2023/05/07 14:12:24;;;;;;;3.70;2.20;;;;;;;;;;5063311;28;20074;-89
2023/05/07 14:14:50;;;;;;;3.33;2.25;;;;;;;;;;5075707;28;20085;-94
2023/05/07 14:17:17;;;;;;;5.82;2.78;;;;;;;;;;5075843;28;20408;-90
2023/05/07 14:19:44;;;;;;;2.50;2.10;;;;;;;;;;5075448;28;20071;-91
2023/05/07 14:22:10;;;;;;;2.92;2.05;;;;;;;;;;5075367;28;20138;-90
2023/05/07 14:24:36;;;;;;;3.13;2.58;;;;;;;;;;5075316;28;20044;-88
2023/05/07 14:27:02;;;;;;;3.00;2.20;;;;;;;;;;5064716;28;20041;-91
2023/05/07 14:29:29;;;;;;;3.97;2.38;;;;;;;;;;5055384;28;20504;-92
2023/05/07 14:31:55;;;;;;;4.18;2.30;;;;;;;;;;5055349;28;20060;-90